createdAt,value
2022-08-05T00:03:29.895Z,24.81
2022-08-05T00:08:35.600Z,24.64
2022-08-05T00:13:39.368Z,24.90
2022-08-05T00:18:41.216Z,24.51
2022-08-05T00:23:45.901Z,24.83
2022-08-05T00:28:49.253Z,24.61
2022-08-05T00:34:54.817Z,24.57
2022-08-05T00:39:13.964Z,24.43
2022-08-05T00:44:15.717Z,24.32
2022-08-05T00:49:19.686Z,24.11
2022-08-05T00:54:21.042Z,23.87
2022-08-05T00:59:22.322Z,23.80
2022-08-05T01:04:26.767Z,23.65
2022-08-05T01:09:31.150Z,23.76
2022-08-05T01:14:32.425Z,23.32
2022-08-05T01:19:56.967Z,23.37
2022-08-05T01:24:56.077Z,23.45
2022-08-05T01:29:57.388Z,23.42
2022-08-05T01:34:58.698Z,23.55
2022-08-05T01:40:00.018Z,23.38
2022-08-05T01:45:02.334Z,22.99
2022-08-05T01:50:04.580Z,22.85
2022-08-05T01:55:07.226Z,23.00
2022-08-05T02:00:12.606Z,22.97
2022-08-05T02:05:13.921Z,22.53
2022-08-05T02:10:17.266Z,22.84
2022-08-05T02:15:19.878Z,22.67
2022-08-05T02:20:21.264Z,22.59
2022-08-05T02:25:23.598Z,22.36
2022-08-05T02:30:27.105Z,22.64
2022-08-05T02:35:33.269Z,22.25
2022-08-05T02:40:39.176Z,22.01
2022-08-05T02:45:52.109Z,21.94
2022-08-05T02:50:54.802Z,22.08
2022-08-05T02:56:00.356Z,21.69
2022-08-05T03:01:03.531Z,22.12
2022-08-05T03:06:53.576Z,21.99
2022-08-05T03:11:55.639Z,21.95
2022-08-05T03:16:47.866Z,21.88
2022-08-05T03:21:50.089Z,21.79
2022-08-05T03:26:51.411Z,22.10
2022-08-05T03:31:56.571Z,21.81
2022-08-05T03:36:58.708Z,21.54
2022-08-05T03:41:59.954Z,21.88
2022-08-05T03:47:03.525Z,21.94
2022-08-05T03:52:36.873Z,22.10
2022-08-05T03:57:41.110Z,22.46
2022-08-05T04:02:51.868Z,22.48
2022-08-05T04:07:59.505Z,22.70
2022-08-05T04:13:03.402Z,22.82
2022-08-05T04:18:06.762Z,22.82
2022-08-05T04:23:12.624Z,22.86
2022-08-05T04:28:17.508Z,22.86
2022-08-05T04:33:36.329Z,22.89
2022-08-05T04:38:40.290Z,22.85
2022-08-05T04:43:48.121Z,22.86
2022-08-05T04:48:53.457Z,22.89
2022-08-05T04:53:55.581Z,23.18
2022-08-05T04:58:56.912Z,23.11
2022-08-05T05:03:58.191Z,23.18
2022-08-05T05:09:00.984Z,23.06
2022-08-05T05:14:06.826Z,22.68
2022-08-05T05:19:19.377Z,23.05
2022-08-05T05:24:56.137Z,23.25
2022-08-05T05:30:04.197Z,23.40
2022-08-05T05:35:06.378Z,22.89
2022-08-05T05:40:07.660Z,23.25
2022-08-05T05:45:08.938Z,22.92
2022-08-05T05:50:10.410Z,22.82
2022-08-05T05:55:17.826Z,23.14
2022-08-05T06:00:19.082Z,23.23
2022-08-05T06:05:21.416Z,23.71
2022-08-05T06:10:22.705Z,23.75
2022-08-05T06:15:25.042Z,24.06
2022-08-05T06:20:47.762Z,23.92
2022-08-05T06:26:12.400Z,24.30
2022-08-05T06:31:18.014Z,24.63
2022-08-05T06:36:25.967Z,24.97
2022-08-05T06:41:27.485Z,25.47
2022-08-05T06:46:29.664Z,25.66
2022-08-05T06:51:31.835Z,25.99
2022-08-05T06:56:34.610Z,26.41
2022-08-05T07:01:36.678Z,25.88
2022-08-05T07:06:38.108Z,26.31
2022-08-05T07:11:39.833Z,25.85
2022-08-05T07:17:58.981Z,26.06
2022-08-05T07:22:11.667Z,26.33
2022-08-05T07:27:17.151Z,25.94
2022-08-05T07:32:18.440Z,26.62
2022-08-05T07:37:29.072Z,26.40
2022-08-05T07:42:39.034Z,26.91
2022-08-05T07:47:45.363Z,27.09
2022-08-05T07:52:46.932Z,27.47
2022-08-05T07:57:55.163Z,27.44
2022-08-05T08:03:15.186Z,27.30
2022-08-05T08:08:19.929Z,27.21
2022-08-05T08:13:22.130Z,27.91
2022-08-05T08:18:33.883Z,27.68
2022-08-05T08:24:02.398Z,27.01
2022-08-05T08:28:59.723Z,27.41
2022-08-05T08:34:18.754Z,27.51
2022-08-05T08:39:31.494Z,27.95
2022-08-05T08:45:18.559Z,28.29
2022-08-05T08:50:23.314Z,28.54
2022-08-05T08:56:02.739Z,28.71
2022-08-05T09:00:42.957Z,29.53
2022-08-05T09:06:07.648Z,29.23
2022-08-05T09:11:07.262Z,28.84
2022-08-05T09:16:14.675Z,28.76
2022-08-05T09:21:20.813Z,28.92
2022-08-05T09:26:39.645Z,29.45
2022-08-05T09:32:42.090Z,29.93
2022-08-05T09:37:15.224Z,30.04
2022-08-05T09:42:24.499Z,30.00
2022-08-05T09:47:48.175Z,30.56
2022-08-05T09:52:52.928Z,30.10
2022-08-05T09:57:58.698Z,30.65
2022-08-05T10:03:01.198Z,30.70
2022-08-05T10:08:36.053Z,30.73
2022-08-05T10:13:25.405Z,31.06
2022-08-05T10:18:32.987Z,31.11
2022-08-05T10:23:55.844Z,31.00
2022-08-05T10:28:56.908Z,30.95
2022-08-05T10:33:58.265Z,31.74
2022-08-05T10:38:59.574Z,31.76
2022-08-05T10:44:02.635Z,31.32
2022-08-05T10:49:10.151Z,31.23
2022-08-05T10:54:28.431Z,31.39
2022-08-05T11:00:03.288Z,31.84
2022-08-05T11:04:52.502Z,31.58
2022-08-05T11:10:09.586Z,32.36
2022-08-05T11:15:19.197Z,32.41
2022-08-05T11:20:22.227Z,33.06
2022-08-05T11:26:06.279Z,32.34
2022-08-05T11:30:47.879Z,33.05
2022-08-05T11:36:07.550Z,33.47
2022-08-05T11:41:34.444Z,34.33
2022-08-05T11:46:32.389Z,34.38
2022-08-05T11:51:43.540Z,33.57
2022-08-05T11:56:52.189Z,32.90
2022-08-05T12:01:53.696Z,33.43
2022-08-05T12:06:55.161Z,34.58
2022-08-05T12:11:56.460Z,34.93
2022-08-05T12:17:01.547Z,35.20
2022-08-05T12:22:02.856Z,35.97
2022-08-05T12:27:09.782Z,36.36
2022-08-05T12:32:22.833Z,35.62
2022-08-05T12:37:29.960Z,35.34
2022-08-05T12:42:33.136Z,36.41
2022-08-05T12:47:35.010Z,36.88
2022-08-05T12:52:42.999Z,36.42
2022-08-05T12:58:50.869Z,37.14
2022-08-05T13:03:05.543Z,37.31
2022-08-05T13:08:08.409Z,36.75
2022-08-05T13:13:10.210Z,36.56
2022-08-05T13:18:31.446Z,35.38
2022-08-05T13:23:32.716Z,35.68
2022-08-05T13:28:35.627Z,35.72
2022-08-05T13:34:24.989Z,36.06
2022-08-05T13:39:24.091Z,36.71
2022-08-05T13:44:27.782Z,36.97
2022-08-05T13:49:30.206Z,36.24
2022-08-05T13:54:39.761Z,36.33
2022-08-05T13:59:57.248Z,37.28
2022-08-05T14:05:15.312Z,37.92
2022-08-05T14:10:28.971Z,37.67
2022-08-05T14:16:05.755Z,37.63
2022-08-05T14:20:54.952Z,37.33
2022-08-05T14:25:58.533Z,37.70
2022-08-05T14:31:01.487Z,37.74
2022-08-05T14:36:03.095Z,38.08
2022-08-05T14:41:06.171Z,37.98
2022-08-05T14:46:08.327Z,38.25
2022-08-05T14:51:10.026Z,37.83
2022-08-05T14:56:22.654Z,37.24
2022-08-05T15:01:48.529Z,37.84
2022-08-05T15:06:49.394Z,36.97
2022-08-05T15:11:53.651Z,36.93
2022-08-05T15:16:55.060Z,36.85
2022-08-05T15:22:00.035Z,37.47
2022-08-05T15:27:03.407Z,38.47
2022-08-05T15:32:05.776Z,38.85
2022-08-05T15:37:14.770Z,37.42
2022-08-05T15:42:53.514Z,37.24
2022-08-05T15:47:38.241Z,37.26
2022-08-05T15:52:53.871Z,37.94
2022-08-05T15:57:56.483Z,38.27
2022-08-05T16:02:58.342Z,38.07
2022-08-05T16:08:00.323Z,36.78
2022-08-05T16:13:02.415Z,35.91
2022-08-05T16:18:04.110Z,35.71
2022-08-05T16:23:08.422Z,36.48
2022-08-05T16:28:10.546Z,36.44
2022-08-05T16:33:12.148Z,36.24
2022-08-05T16:38:25.205Z,36.11
2022-08-05T16:43:27.071Z,35.62
2022-08-05T16:48:33.458Z,35.88
2022-08-05T16:54:06.269Z,35.86
2022-08-05T16:58:58.116Z,35.76
2022-08-05T17:03:59.439Z,35.27
2022-08-05T17:09:00.776Z,34.53
2022-08-05T17:14:06.133Z,34.12
2022-08-05T17:19:09.679Z,34.27
2022-08-05T17:24:19.834Z,34.19
2022-08-05T17:29:33.731Z,34.17
2022-08-05T17:34:41.570Z,33.75
2022-08-05T17:39:43.967Z,33.72
2022-08-05T17:44:50.382Z,33.61
2022-08-05T17:50:03.778Z,33.40
2022-08-05T17:55:13.136Z,32.89
2022-08-05T18:00:14.599Z,32.61
2022-08-05T18:05:17.465Z,32.53
2022-08-05T18:10:21.025Z,32.24
2022-08-05T18:15:26.414Z,31.91
2022-08-05T18:20:29.027Z,31.71
2022-08-05T18:25:32.896Z,31.15
2022-08-05T18:30:34.465Z,31.37
2022-08-05T18:36:00.122Z,31.62
2022-08-05T18:41:56.854Z,31.54
2022-08-05T18:46:19.962Z,31.22
2022-08-05T18:52:04.279Z,31.04
2022-08-05T18:57:02.019Z,30.59
2022-08-05T19:02:03.647Z,29.92
2022-08-05T19:07:04.973Z,29.61
2022-08-05T19:12:06.279Z,29.77
2022-08-05T19:17:12.954Z,29.74
2022-08-05T19:22:21.574Z,29.52
2022-08-05T19:27:24.552Z,29.65
2022-08-05T19:32:31.628Z,29.35
2022-08-05T19:37:47.397Z,29.70
2022-08-05T19:43:00.806Z,29.63
2022-08-05T19:48:07.078Z,29.24
2022-08-05T19:53:15.835Z,29.12
2022-08-05T19:58:28.853Z,29.05
2022-08-05T20:03:40.495Z,28.72
2022-08-05T20:08:47.350Z,28.38
2022-08-05T20:13:58.745Z,28.16
2022-08-05T20:19:10.745Z,28.00
2022-08-05T20:24:18.825Z,27.94
2022-08-05T20:29:27.488Z,28.07
2022-08-05T20:34:29.127Z,28.16
2022-08-05T20:39:36.633Z,28.00
2022-08-05T20:44:38.287Z,27.74
2022-08-05T20:49:40.163Z,27.58
2022-08-05T20:54:43.700Z,27.75
2022-08-05T21:00:20.198Z,27.40
2022-08-05T21:05:22.700Z,27.48
2022-08-05T21:10:24.069Z,27.45
2022-08-05T21:15:26.386Z,27.21
2022-08-05T21:20:35.789Z,27.13
2022-08-05T21:25:37.104Z,27.06
2022-08-05T21:30:38.525Z,27.04
2022-08-05T21:35:55.949Z,27.37
2022-08-05T21:40:59.901Z,27.43
2022-08-05T21:46:01.731Z,27.06
2022-08-05T21:52:16.412Z,26.98
2022-08-05T21:56:28.317Z,27.00
2022-08-05T22:01:29.876Z,26.97
2022-08-05T22:06:39.639Z,27.12
2022-08-05T22:11:41.591Z,27.50
2022-08-05T22:16:51.921Z,27.47
2022-08-05T22:21:58.215Z,27.16
2022-08-05T22:27:18.475Z,27.02
2022-08-05T22:32:20.027Z,26.83
2022-08-05T22:37:24.316Z,26.66
2022-08-05T22:42:45.792Z,26.39
2022-08-05T22:47:59.280Z,26.17
2022-08-05T22:53:00.546Z,26.22
2022-08-05T22:58:01.857Z,25.70
2022-08-05T23:03:04.145Z,25.48
2022-08-05T23:08:05.771Z,25.34
2022-08-05T23:13:07.049Z,25.45
2022-08-05T23:18:11.783Z,25.30
2022-08-05T23:23:17.456Z,24.75
2022-08-05T23:28:19.040Z,24.51
2022-08-05T23:33:25.726Z,24.50
2022-08-05T23:38:42.993Z,24.24
2022-08-05T23:44:04.948Z,23.99
2022-08-05T23:49:15.811Z,23.97
2022-08-05T23:54:18.410Z,23.44
2022-08-05T23:59:37.300Z,23.68
